Tiempo atmosférico en la estación meteorológica de Aroche, Huelva (260 m.)



Fecha
DESCASC
Temp. máxima en grados centígrados (hora)
DESCASC
Temp. mínima en grados centígrados (hora)
DESCASC
Temp. media en grados centígrados
DESCASC
Racha de viento máxima en m/sg (hora)
DESCASC
Velocidad máxima media en intervalos de 10 minutos(hora)
DESCASC
Precipitaciones diarias en mm
DESCASC
Precipitaciones de 00:00 a 06:00 en mm
DESCASC
Precipitaciones de 06:00 a 12:00 en mm
DESCASC
Precipitaciones de 12:00 a 18:00 en mm
DESCASC
Precipitaciones de 18:00 a 24:00 en mm
DESCASC
29-03-2020 18.7 (14:30) 3.9 (07:00) 11.3 8.06 (14:50) 3.33 (15:10) 0 0 0 0 0
28-03-2020 18.9 (16:40) 2.1 (07:20) 10.5 6.39 (12:30) 3.33 (13:00) 0 0 0 0 0
27-03-2020 15.8 (16:20) 6.1 (02:00) 11 6.94 (16:20) 3.89 (16:50) 0 0 0 0 0
26-03-2020 19.5 (16:30) 7.8 (00:00) 13.7 10.56 (14:40) 6.11 (16:40) 0 0 0 0 0
25-03-2020 19.5 (16:00) 9.4 (00:00) 14.4 6.94 (18:30) 4.17 (18:40) 0.8 0 0.8 0 0
24-03-2020 18.9 (17:30) 5.5 (00:00) 12.2 9.44 (11:40) 5.28 (11:40) 0 0 0 0 0
23-03-2020 18.1 (16:30) 6.3 (00:00) 12.2 11.39 (17:30) 6.11 (17:30) 0.4 0 0 0.2 0.2
22-03-2020 16.6 (15:50) 6.6 (23:30) 11.6 6.67 (13:00) 4.17 (11:50) 0.8 0.8 0 0 0
21-03-2020 13.4 (13:00) 6.8 (00:00) 10.1 8.33 (13:00) 4.17 (12:50) 6.6 0.8 0 5.6 0.2
20-03-2020 15.4 (12:50) 9.1 (00:00) 12.3 10.28 (20:00) 5 (20:00) 33 0 0 2.4 30.6
19-03-2020 21.6 (14:40) 7.4 (00:00) 14.5 6.11 (10:50) 3.33 (10:50) 0 0 0 0 0
18-03-2020 23.9 (15:50) 9 (00:00) 16.4 9.72 (00:10) 5.56 (13:10) 0 0 0 0 0
17-03-2020 17 (17:00) 5 (00:00) 11 12.78 (16:30) 7.78 (16:00) 0.8 0 0.6 0 0.2
16-03-2020 14.5 (15:00) 4.8 (00:00) 9.7 13.89 (12:30) 6.94 (12:40) 4.6 0 0 0 4.6
15-03-2020 21.9 (16:40) 6.4 (00:00) 14.1 12.22 (21:50) 6.67 (21:50) 0 0 0 0 0
14-03-2020 22.9 (14:20) 4.4 (00:00) 13.6 6.67 (14:50) 4.44 (14:50) 0 0 0 0 0
13-03-2020 21.3 (15:40) 6 (04:30) 13.6 6.94 (16:00) 4.44 (15:50) 0 0 0 0 0
12-03-2020 24 (16:20) 9.6 (00:00) 16.8 7.5 (14:40) 5 (14:40) 0 0 0 0 0
11-03-2020 30 (16:10) 7.2 (00:00) 18.6 6.11 (14:50) 3.61 (16:40) 0 0 0 0 0
10-03-2020 29.4 (16:50) 6.1 (00:00) 17.7 4.72 (17:30) 3.33 (17:30) 0 0 0 0 0
09-03-2020 21.2 (17:00) 8.2 (00:00) 14.7 8.89 (13:20) 4.72 (15:10) 0 0 0 0 0
08-03-2020 20 (14:40) -0.8 (-00:0) 9.6 7.5 (17:20) 4.44 (16:10) 0 0 0 0 0
07-03-2020 20.4 (15:00) 4.5 (00:00) 12.4 6.67 (05:10) 3.06 (05:10) 0 0 0 0 0
06-03-2020 15.9 (16:20) 8.4 (00:00) 12.1 12.78 (13:30) 7.78 (13:30) 0 0 0 0 0
05-03-2020 17.3 (15:50) 7 (00:00) 12.1 12.78 (11:00) 6.67 (16:00) 0.4 0 0.4 0 0
04-03-2020 19.4 (16:20) 7 (00:00) 13.2 7.78 (16:00) 4.17 (15:20) 0 0 0 0 0
03-03-2020 17.3 (18:20) 2.3 (00:00) 9.8 8.61 (18:30) 5.28 (17:20) 0 0 0 0 0
02-03-2020 16.3 (17:10) 8.8 (00:00) 12.5 13.33 (15:30) 7.22 (15:10) 4.4 3 1.4 0 0
01-03-2020 16.5 (17:20) 6.6 (00:00) 11.5 9.72 (22:30) 4.72 (22:30) 0 0 0 0 0
29-02-2020 15.1 (11:40) 3.6 (00:00) 9.4 6.67 (13:40) 4.17 (13:20) 3.2 0 0 3.2 0

Gráficas

Temp. máximas Temp. mínimas Temp. medias Precipitaciones Rachas de viento máximas Velocidades máximas media en intervalos de 10 minutos

Datos horarios

Fecha y hora oficial Temperatura (ºC) Velocidad del viento (km/h) Dirección del viento Racha (km/h) Dirección de racha Precipitación (mm) Presión (hPa) Tendencia (hPa) Humedad (%)
2020-03-29 23:00:00 12.1 2 Este 6 Nordeste 0 -- -- 85
2020-03-29 22:00:00 13.7 3 Nordeste 7 Sur 0 -- -- 77
2020-03-29 21:00:00 15.1 4 Sudoeste 9 Sudoeste 0 -- -- 70
2020-03-29 20:00:00 16.2 0 Calma 4 Sudeste 0 -- -- 67
2020-03-29 19:00:00 16.6 5 Este 14 Oeste 0 -- -- 63
2020-03-29 18:00:00 16.9 7 Oeste 15 Oeste 0 -- -- 59
2020-03-29 17:00:00 17.9 6 Oeste 20 Oeste 0 -- -- 56
2020-03-29 16:00:00 18.3 11 Sudoeste 26 Sudoeste 0 -- -- 56
2020-03-29 15:00:00 18.5 6 Sur 29 Oeste 0 -- -- 55
2020-03-29 14:00:00 17.8 4 Norte 18 Sur 0 -- -- 57
2020-03-29 13:00:00 16.7 6 Oeste 13 Oeste 0 -- -- 65
2020-03-29 12:00:00 15.7 3 Noroeste 9 Este 0 -- -- 70
2020-03-29 11:00:00 12.8 3 Este 6 Sudeste 0 -- -- 84
2020-03-29 10:00:00 7.7 0 Calma 4 Sudeste 0 -- -- 100
2020-03-29 09:00:00 4.6 3 Este 4 Nordeste 0 -- -- 99
2020-03-29 08:00:00 4.2 2 Este 4 Este 0 -- -- 98
2020-03-29 07:00:00 3.9 4 Sudeste 6 Sudeste 0 -- -- 98
2020-03-29 06:00:00 4.2 2 Este 5 Sudeste 0 -- -- 98
2020-03-29 05:00:00 4.8 0 Calma 5 Nordeste 0 -- -- 96
2020-03-29 03:00:00 6 2 Este 4 Sudeste 0 -- -- 95
2020-03-29 01:00:00 6.7 2 Sudeste 5 Nordeste 0 -- -- 94
2020-03-29 00:00:00 7.3 3 Este 5 Sudeste 0 -- -- 92
2020-03-28 23:00:00 8.6 3 Este 5 Nordeste 0 -- -- 89
2020-03-28 22:00:00 10.1 0 Calma 5 Nordeste 0 -- -- 83
2020-03-28 21:00:00 12.7 3 Norte 13 Sur 0 -- -- 71
2020-03-28 20:00:00 15.3 5 Sudoeste 10 Oeste 0 -- -- 58
2020-03-28 19:00:00 18.6 3 Noroeste 12 Noroeste 0 -- -- 47
2020-03-28 18:00:00 18.3 2 Sur 12 Oeste 0 -- -- 51
2020-03-28 17:00:00 18.5 5 Sudoeste 11 Sudoeste 0 -- -- 49
2020-03-28 16:00:00 18 4 Sudoeste 13 Sur 0 -- -- 52
2020-03-28 15:00:00 17 0 Calma 14 Sur 0 -- -- 53
2020-03-28 14:00:00 17.6 8 Sur 21 Sur 0 -- -- 47
2020-03-28 13:00:00 17.7 12 Sur 23 Este 0 -- -- 54
2020-03-28 12:00:00 15.7 10 Sur 19 Sur 0 -- -- 64
2020-03-28 11:00:00 14.8 4 Sudoeste 16 Sudeste 0 -- -- 71
2020-03-28 10:00:00 11.2 0 Calma 7 Nordeste 0 -- -- 88
2020-03-28 09:00:00 6.4 0 Calma 6 Sudeste 0 -- -- 99
2020-03-28 08:00:00 2.5 3 Sudeste 6 Sudeste 0 -- -- 99
2020-03-28 07:00:00 2.4 3 Este 6 Sudeste 0 -- -- 98
2020-03-28 06:00:00 2.5 2 Este 5 Sudeste 0 -- -- 97
2020-03-28 05:00:00 2.9 4 Sudeste 6 Este 0 -- -- 97
2020-03-28 04:00:00 3.2 0 Calma 8 Sudeste 0 -- -- 96
2020-03-28 03:00:00 4.1 2 Este 6 Nordeste 0 -- -- 93
2020-03-28 02:00:00 4.9 3 Nordeste 6 Nordeste 0 -- -- 92
2020-03-28 01:00:00 5.1 0 Calma 6 Norte 0 -- -- 94
2020-03-28 00:00:00 6.4 0 Calma 7 Este 0 -- -- 90
2020-03-27 23:00:00 7.5 3 Nordeste 7 Este 0 -- -- 89
2020-03-27 22:00:00 8.1 4 Este 7 Este 0 -- -- 89
2020-03-27 21:00:00 9.3 0 Calma 5 Norte 0 -- -- 85
2020-03-27 20:00:00 12.9 0 Calma 11 Noroeste 0 -- -- 72
2020-03-27 19:00:00 15.1 6 Norte 14 Norte 0 -- -- 60
2020-03-27 18:00:00 15.7 9 Norte 17 Noroeste 0 -- -- 57
2020-03-27 17:00:00 15.4 10 Norte 25 Nordeste 0 -- -- 60
2020-03-27 16:00:00 14.9 10 Noroeste 20 Norte 0 -- -- 62
2020-03-27 15:00:00 15 12 Oeste 24 Oeste 0 -- -- 62
2020-03-27 14:00:00 14.3 9 Oeste 20 Oeste 0 -- -- 65
2020-03-27 13:00:00 13.7 7 Oeste 18 Sur 0 -- -- 71
2020-03-27 12:00:00 11 5 Oeste 14 Noroeste 0 -- -- 76
2020-03-27 11:00:00 9.4 9 Noroeste 14 Noroeste 0 -- -- 81
2020-03-27 10:00:00 8.3 9 Noroeste 18 Noroeste 0 -- -- 85
2020-03-27 09:00:00 7.7 6 Oeste 21 Noroeste 0 -- -- 89
2020-03-27 08:00:00 7.2 6 Oeste 18 Noroeste 0 -- -- 93
2020-03-27 07:00:00 7.2 9 Oeste 17 Oeste 0 -- -- 94
2020-03-27 06:00:00 7.4 10 Oeste 16 Oeste 0 -- -- 94
2020-03-27 05:00:00 6.9 7 Sudoeste 14 Sudoeste 0 -- -- 96
2020-03-27 04:00:00 6.4 6 Sudoeste 10 Oeste 0 -- -- 94
2020-03-27 03:00:00 7.5 5 Noroeste 13 Noroeste 0 -- -- 94
2020-03-27 02:00:00 6.1 0 Calma 6 Norte 0 -- -- 95
2020-03-27 01:00:00 7.4 2 Norte 12 Oeste 0 -- -- 91
2020-03-27 00:00:00 8.8 7 Oeste 12 Oeste 0 -- -- 87
2020-03-26 23:00:00 10.3 6 Oeste 24 Oeste 0 -- -- 81
2020-03-26 22:00:00 12.4 10 Oeste 26 Oeste 0 -- -- 73
2020-03-26 21:00:00 12.8 11 Oeste 21 Noroeste 0 -- -- 71
2020-03-26 20:00:00 14.4 10 Oeste 24 Oeste 0 -- -- 64
2020-03-26 19:00:00 16.9 15 Noroeste 30 Noroeste 0 -- -- 53
2020-03-26 18:00:00 18.4 16 Noroeste 32 Oeste 0 -- -- 45
2020-03-26 17:00:00 18.9 20 Oeste 33 Oeste 0 -- -- 44
2020-03-26 16:00:00 18.5 17 Noroeste 37 Oeste 0 -- -- 51
2020-03-26 15:00:00 18.8 18 Oeste 38 Oeste 0 -- -- 49
2020-03-26 14:00:00 17.7 15 Noroeste 29 Oeste 0 -- -- 61
2020-03-26 13:00:00 16.2 13 Oeste 28 Oeste 0 -- -- 68
2020-03-26 12:00:00 13.9 8 Oeste 17 Sudoeste 0 -- -- 76
2020-03-26 11:00:00 11.5 6 Oeste 14 Oeste 0 -- -- 86
2020-03-26 10:00:00 9.2 5 Oeste 15 Sudoeste 0 -- -- 95
2020-03-26 09:00:00 8.7 4 Oeste 8 Oeste 0 -- -- 99
2020-03-26 08:00:00 7.9 0 Calma 4 Sur 0 -- -- 97
2020-03-26 07:00:00 9 3 Sur 5 Noroeste 0 -- -- 97
2020-03-26 06:00:00 9.9 5 Oeste 10 Oeste 0 -- -- 97
2020-03-26 05:00:00 10.3 2 Oeste 6 Oeste 0 -- -- 97
2020-03-26 04:00:00 10.5 4 Oeste 7 Oeste 0 -- -- 96
2020-03-26 03:00:00 11.3 4 Oeste 9 Oeste 0 -- -- 95
2020-03-26 02:00:00 12.2 4 Oeste 10 Oeste 0 -- -- 94
2020-03-26 01:00:00 12.9 3 Sudoeste 8 Oeste 0 -- -- 93
2020-03-26 00:00:00 13.2 5 Oeste 14 Oeste 0 -- -- 92
2020-03-25 23:00:00 13.6 8 Oeste 15 Oeste 0 -- -- 90
2020-03-25 22:00:00 13.4 0 Calma 4 Sudeste 0 -- -- 89
2020-03-25 21:00:00 13.4 2 Este 8 Sudeste 0 -- -- 85
2020-03-25 20:00:00 14.2 3 Sudeste 18 Sudeste 0 -- -- 79
2020-03-25 19:00:00 17.5 8 Sudoeste 25 Oeste 0 -- -- 71
2020-03-25 18:00:00 18.8 13 Oeste 24 Oeste 0 -- -- 62
2020-03-25 17:00:00 19.2 12 Oeste 23 Oeste 0 -- -- 62
2020-03-25 16:00:00 19.5 11 Oeste 23 Sudoeste 0 -- -- 66
2020-03-25 15:00:00 17.3 14 Oeste 22 Oeste 0 -- -- 74
2020-03-25 14:00:00 18.3 9 Sur 15 Sudoeste 0 -- -- 67
2020-03-25 13:00:00 16.7 4 Sur 10 Sudoeste 0 -- -- 72
2020-03-25 12:00:00 14.8 4 Sudoeste 10 Sudoeste 0 -- -- 78
2020-03-25 11:00:00 14.5 3 Oeste 7 Oeste 0 -- -- 81
2020-03-25 10:00:00 12.7 0 Calma 6 Sudoeste 0.6 -- -- 94
2020-03-25 09:00:00 11.2 2 Sudeste 6 Sudoeste 0.2 -- -- 97
2020-03-25 08:00:00 10.2 0 Calma 4 Este 0 -- -- 96
2020-03-25 07:00:00 10.4 0 Calma 6 Este 0 -- -- 94
2020-03-25 06:00:00 10.3 3 Este 6 Este 0 -- -- 94
2020-03-25 05:00:00 9.9 0 Calma 5 Sudoeste 0 -- -- 96
2020-03-25 04:00:00 9.6 0 Calma 6 Sur 0 -- -- 95
2020-03-25 03:00:00 9.5 5 Este 7 Este 0 -- -- 92
2020-03-25 02:00:00 10.4 0 Calma 8 Nordeste 0 -- -- 85
2020-03-25 01:00:00 11.8 2 Norte 12 Este 0 -- -- 77
2020-03-25 00:00:00 12.9 7 Este 14 Este 0 -- -- 74
2020-03-24 23:00:00 13.6 8 Este 19 Este 0 -- -- 74
2020-03-24 22:00:00 14.2 3 Sudeste 13 Norte 0 -- -- 72
2020-03-24 21:00:00 15.9 5 Nordeste 16 Norte 0 -- -- 65
2020-03-24 20:00:00 16.5 6 Nordeste 15 Norte 0 -- -- 62
2020-03-24 19:00:00 17.6 9 Nordeste 22 Nordeste 0 -- -- 59
2020-03-24 18:00:00 17.9 11 Nordeste 24 Nordeste 0 -- -- 55
2020-03-24 17:00:00 18.2 9 Nordeste 28 Nordeste 0 -- -- 53
2020-03-24 16:00:00 18.1 14 Nordeste 27 Nordeste 0 -- -- 55
2020-03-24 15:00:00 18.4 14 Nordeste 26 Este 0 -- -- 53
2020-03-24 14:00:00 17.6 12 Nordeste 31 Este 0 -- -- 56
2020-03-24 13:00:00 17.5 14 Nordeste 27 Nordeste 0 -- -- 58
2020-03-24 12:00:00 15.5 12 Este 34 Este 0 -- -- 66
2020-03-24 11:00:00 15.2 14 Nordeste 23 Nordeste 0 -- -- 69
2020-03-24 10:00:00 14.5 10 Nordeste 28 Este 0 -- -- 70
2020-03-24 09:00:00 12.3 4 Sur 13 Sudeste 0 -- -- 80
2020-03-24 08:00:00 10.1 7 Sudeste 18 Este 0 -- -- 87
2020-03-24 07:00:00 9.4 7 Este 18 Este 0 -- -- 88
2020-03-24 06:00:00 8.7 6 Sudeste 13 Este 0 -- -- 92
2020-03-24 05:00:00 7.8 5 Sudeste 15 Nordeste 0 -- -- 95
2020-03-24 04:00:00 5.5 5 Sur 8 Sur 0 -- -- 96
2020-03-24 03:00:00 6.8 3 Sudoeste 7 Nordeste 0 -- -- 95
2020-03-24 02:00:00 8.9 2 Nordeste 7 Sudeste 0 -- -- 92
2020-03-24 01:00:00 10.1 0 Calma 17 Nordeste 0 -- -- 90
2020-03-24 00:00:00 10.6 3 Este 39 Este 0.2 -- -- 87
2020-03-23 23:00:00 9.8 9 Nordeste 22 Este 0 -- -- 83
2020-03-23 22:00:00 7.4 2 Sudoeste 6 Nordeste 0 -- -- 93
2020-03-23 21:00:00 8.2 0 Calma 4 Sur 0 -- -- 88
2020-03-23 20:00:00 10.8 0 Calma 11 Norte 0 -- -- 83
2020-03-23 19:00:00 13.7 6 Nordeste 12 Este 0 -- -- 65
2020-03-23 18:00:00 12.6 5 Este 41 Nordeste 0.2 -- -- 77
2020-03-23 17:00:00 16.9 14 Este 30 Este 0 -- -- 53
2020-03-23 16:00:00 17.4 12 Nordeste 28 Este 0 -- -- 48
2020-03-23 15:00:00 16.9 9 Este 23 Este 0 -- -- 51
2020-03-23 14:00:00 16.7 12 Este 23 Este 0 -- -- 51
2020-03-23 13:00:00 15.9 10 Este 27 Este 0 -- -- 54
2020-03-23 12:00:00 15 13 Este 31 Este 0 -- -- 59
2020-03-23 11:00:00 15 14 Este 25 Este 0 -- -- 62
2020-03-23 10:00:00 14 9 Este 20 Este 0 -- -- 69
2020-03-23 09:00:00 10.3 0 Calma 3 Este 0 -- -- 99
2020-03-23 08:00:00 7.4 0 Calma 3 Noroeste 0 -- -- 100
2020-03-23 07:00:00 7.4 3 Este 4 Este 0 -- -- 100
2020-03-23 06:00:00 7.3 2 Este 6 Este 0 -- -- 100
2020-03-23 05:00:00 6.4 3 Nordeste 5 Sudeste 0 -- -- 100
2020-03-23 04:00:00 6.6 0 Calma 3 Oeste 0 -- -- 99
2020-03-23 03:00:00 6.4 2 Oeste 4 Oeste 0 -- -- 99
2020-03-23 02:00:00 6.7 0 Calma 3 Sudeste 0 -- -- 99
2020-03-23 01:00:00 6.8 0 Calma 4 Este 0 -- -- 98
2020-03-23 00:00:00 6.6 0 Calma 5 Este 0 -- -- 97
2020-03-22 23:00:00 7.4 5 Este 8 Este 0 -- -- 96
2020-03-22 22:00:00 8.2 3 Nordeste 5 Este 0 -- -- 94
2020-03-22 21:00:00 9.5 0 Calma 4 Este 0 -- -- 92
2020-03-22 20:00:00 11.8 0 Calma 5 Este 0 -- -- 82
2020-03-22 19:00:00 13.6 0 Calma 15 Norte 0 -- -- 69
2020-03-22 18:00:00 15.6 7 Oeste 18 Noroeste 0 -- -- 57
2020-03-22 17:00:00 15.4 3 Sudoeste 10 Noroeste 0 -- -- 57
2020-03-22 16:00:00 16.6 6 Sudoeste 11 Noroeste 0 -- -- 54
2020-03-22 15:00:00 15.7 9 Sudeste 17 Sudeste 0 -- -- 52
2020-03-22 14:00:00 14.4 7 Este 23 Este 0 -- -- 58
2020-03-22 13:00:00 13.3 13 Nordeste 24 Nordeste 0 -- -- 62
2020-03-22 12:00:00 13.4 10 Este 24 Este 0 -- -- 69
2020-03-22 11:00:00 11.8 10 Nordeste 20 Nordeste 0 -- -- 74
2020-03-22 10:00:00 10.1 0 Calma 8 Sudeste 0 -- -- 88
2020-03-22 09:00:00 9.6 3 Sudeste 5 Sudeste 0 -- -- 97
2020-03-22 08:00:00 7.9 0 Calma 5 Este 0 -- -- 100
2020-03-22 07:00:00 8.3 0 Calma 3 Noroeste 0 -- -- 100
2020-03-22 06:00:00 8 3 Oeste 5 Oeste 0.8 -- -- 100
2020-03-22 05:00:00 8.3 2 Oeste 4 Oeste 0 -- -- 100
2020-03-22 04:00:00 8.3 0 Calma 2 Sudoeste 0 -- -- 99
2020-03-22 03:00:00 8.3 2 Sur 2 Sur 0 -- -- 99
2020-03-22 02:00:00 8.5 2 Nordeste 4 Sur 0 -- -- 99
2020-03-22 01:00:00 8.6 3 Este 5 Este 0 -- -- 98
2020-03-22 00:00:00 8.6 2 Sudoeste 3 Sudoeste 0 -- -- 97
2020-03-21 23:00:00 8.9 0 Calma 2 Sudeste 0.2 -- -- 96
2020-03-21 22:00:00 8.9 2 Este 3 Este 0 -- -- 95
2020-03-21 21:00:00 9.2 3 Oeste 13 Oeste 0 -- -- 92
2020-03-21 20:00:00 10 2 Noroeste 6 Sudoeste 0 -- -- 93
2020-03-21 19:00:00 10.5 0 Calma 8 Nordeste 0 -- -- 88
2020-03-21 18:00:00 10.5 3 Nordeste 7 Oeste 0 -- -- 84
2020-03-21 17:00:00 10 4 Sudoeste 13 Sur 1.2 -- -- 92
2020-03-21 16:00:00 8.9 8 Este 17 Este 2.2 -- -- 93
2020-03-21 15:00:00 10.1 6 Este 17 Sur 0.6 -- -- 86
2020-03-21 14:00:00 10.8 12 Sur 23 Sur 1.6 -- -- 89
2020-03-21 13:00:00 13.4 15 Sur 30 Sur 0 -- -- 74
2020-03-21 12:00:00 12.6 11 Sudeste 22 Sudeste 0 -- -- 79
2020-03-21 11:00:00 12 13 Sudeste 27 Sudeste 0 -- -- 78
2020-03-21 10:00:00 10.6 13 Sudeste 23 Sudeste 0 -- -- 83
2020-03-21 09:00:00 9.7 6 Este 11 Este 0 -- -- 93
2020-03-21 08:00:00 6.9 3 Este 8 Este 0 -- -- 99
2020-03-21 07:00:00 7.2 5 Sudeste 8 Sudeste 0 -- -- 99
2020-03-21 06:00:00 8.2 2 Sur 5 Este 0 -- -- 100
2020-03-21 05:00:00 8.3 0 Calma 5 Oeste 0 -- -- 99
2020-03-21 04:00:00 8.5 0 Calma 14 Oeste 0 -- -- 99
2020-03-21 03:00:00 8.8 4 Oeste 9 Sudoeste 0.2 -- -- 100
2020-03-21 02:00:00 8.7 8 Oeste 14 Sudoeste 0 -- -- 99
2020-03-21 01:00:00 9.1 5 Oeste 12 Oeste 0.6 -- -- 99
2020-03-21 00:00:00 9.1 6 Oeste 13 Sudoeste 1.8 -- -- 99
2020-03-20 23:00:00 9.2 6 Oeste 17 Oeste 6.2 -- -- 99
2020-03-20 22:00:00 10 10 Sudoeste 29 Sudoeste 6.2 -- -- 99
2020-03-20 21:00:00 10.7 6 Sudoeste 21 Noroeste 2.6 -- -- 98
2020-03-20 20:00:00 11.1 18 Noroeste 37 Oeste 13.6 -- -- 95
2020-03-20 19:00:00 13.9 2 Noroeste 17 Sudeste 0.2 -- -- 90
2020-03-20 18:00:00 14.6 6 Sudeste 17 Sudeste 0 -- -- 85
2020-03-20 17:00:00 14.4 8 Este 16 Este 0 -- -- 86
2020-03-20 16:00:00 14 3 Nordeste 9 Sudeste 1.2 -- -- 92
2020-03-20 15:00:00 14.1 0 Calma 6 Sudeste 0.6 -- -- 92
2020-03-20 14:00:00 14.2 4 Sur 11 Sudeste 0.6 -- -- 87
2020-03-20 13:00:00 15.4 4 Sudeste 14 Sudoeste 0 -- -- 76
2020-03-20 12:00:00 14.9 9 Sur 15 Sur 0 -- -- 79
2020-03-20 11:00:00 14.2 0 Calma 8 Oeste 0 -- -- 87
2020-03-20 10:00:00 12.5 0 Calma 4 Oeste 0 -- -- 98
2020-03-20 09:00:00 11.6 0 Calma 5 Sudoeste 0 -- -- 98
2020-03-20 08:00:00 10.8 0 Calma 4 Sudoeste 0 -- -- 98
2020-03-20 07:00:00 10.6 0 Calma 6 Norte 0 -- -- 97
2020-03-20 06:00:00 10.6 0 Calma 4 Sudeste 0 -- -- 95
2020-03-20 05:00:00 12 3 Este 5 Este 0 -- -- 93
2020-03-20 04:00:00 12.4 0 Calma 6 Sur 0 -- -- 94
2020-03-20 03:00:00 11.6 0 Calma 8 Sur 0 -- -- 96
2020-03-20 02:00:00 10.6 3 Oeste 5 Oeste 0 -- -- 96
2020-03-20 01:00:00 11.2 3 Nordeste 6 Norte 0 -- -- 94
2020-03-20 00:00:00 11.4 3 Nordeste 5 Norte 0 -- -- 94
2020-03-19 23:00:00 12 0 Calma 4 Nordeste 0 -- -- 92
2020-03-19 22:00:00 13.3 3 Nordeste 6 Sudeste 0 -- -- 87
2020-03-19 21:00:00 14.2 3 Este 5 Sudeste 0 -- -- 84
2020-03-19 20:00:00 15.8 3 Nordeste 5 Nordeste 0 -- -- 75
2020-03-19 19:00:00 17.1 4 Sudoeste 11 Oeste 0 -- -- 70
2020-03-19 18:00:00 18 7 Oeste 15 Noroeste 0 -- -- 66
2020-03-19 17:00:00 18.5 3 Oeste 16 Sur 0 -- -- 69
2020-03-19 16:00:00 19.8 7 Sudoeste 17 Oeste 0 -- -- 57
2020-03-19 15:00:00 21.2 5 Sur 18 Sudoeste 0 -- -- 53
2020-03-19 14:00:00 21.4 6 Sudoeste 11 Sudoeste 0 -- -- 51
2020-03-19 13:00:00 20.3 5 Sur 14 Este 0 -- -- 55
2020-03-19 12:00:00 18.6 7 Este 21 Este 0 -- -- 57
2020-03-19 11:00:00 16.9 9 Este 22 Este 0 -- -- 64
2020-03-19 10:00:00 13.2 3 Sur 10 Sudoeste 0 -- -- 87
2020-03-19 09:00:00 9.9 2 Nordeste 12 Sur 0 -- -- 97
2020-03-19 08:00:00 8.2 5 Sudeste 12 Sur 0 -- -- 98
2020-03-19 07:00:00 7.5 5 Este 8 Nordeste 0 -- -- 97
2020-03-19 06:00:00 8.1 4 Este 8 Sudeste 0 -- -- 97
2020-03-19 05:00:00 8.1 3 Sudeste 7 Este 0 -- -- 95
2020-03-19 04:00:00 8.5 0 Calma 8 Nordeste 0 -- -- 94
2020-03-19 03:00:00 8.9 3 Nordeste 8 Nordeste 0 -- -- 93
2020-03-19 02:00:00 8.9 3 Norte 9 Nordeste 0 -- -- 92
2020-03-19 01:00:00 10 4 Este 7 Sudeste 0 -- -- 89
2020-03-19 00:00:00 10.8 4 Sudeste 7 Sudeste 0 -- -- 87
2020-03-18 23:00:00 11.9 3 Este 6 Sudeste 0 -- -- 83
2020-03-18 22:00:00 13.7 0 Calma 8 Sudeste 0 -- -- 77
2020-03-18 21:00:00 16.2 4 Este 12 Norte 0 -- -- 66
2020-03-18 20:00:00 18.7 8 Norte 15 Nordeste 0 -- -- 57
2020-03-18 19:00:00 21.2 10 Nordeste 27 Nordeste 0 -- -- 48
2020-03-18 18:00:00 22.2 17 Nordeste 33 Nordeste 0 -- -- 47
2020-03-18 17:00:00 22.7 19 Nordeste 30 Nordeste 0 -- -- 46
2020-03-18 16:00:00 23.7 10 Nordeste 28 Este 0 -- -- 38
2020-03-18 15:00:00 23.2 13 Este 32 Nordeste 0 -- -- 42
2020-03-18 14:00:00 21.2 19 Norte 33 Nordeste 0 -- -- 53
2020-03-18 13:00:00 20.3 19 Nordeste 30 Nordeste 0 -- -- 54
2020-03-18 12:00:00 18.2 13 Nordeste 24 Este 0 -- -- 59
2020-03-18 11:00:00 16.1 6 Nordeste 18 Este 0 -- -- 67
2020-03-18 10:00:00 14.1 11 Nordeste 23 Nordeste 0 -- -- 71
2020-03-18 09:00:00 12 14 Nordeste 22 Nordeste 0 -- -- 80
2020-03-18 08:00:00 9.5 2 Sur 8 Nordeste 0 -- -- 92
2020-03-18 07:00:00 10.9 2 Oeste 18 Este 0 -- -- 83
2020-03-18 06:00:00 12.9 10 Este 23 Este 0 -- -- 78
2020-03-18 05:00:00 13.4 16 Este 28 Este 0 -- -- 75
2020-03-18 04:00:00 13.3 11 Nordeste 25 Este 0 -- -- 71
2020-03-18 03:00:00 11.5 5 Nordeste 15 Este 0 -- -- 74
2020-03-18 02:00:00 13.5 7 Sudeste 20 Sudeste 0 -- -- 63
2020-03-18 01:00:00 14.1 8 Sudeste 35 Este 0 -- -- 58
2020-03-18 00:00:00 13.1 9 Nordeste 27 Este 0 -- -- 57
2020-03-17 23:00:00 13 6 Este 25 Nordeste 0 -- -- 56
2020-03-17 22:00:00 10.8 2 Nordeste 8 Norte 0.2 -- -- 77
2020-03-17 21:00:00 12.8 2 Nordeste 6 Norte 0 -- -- 70
2020-03-17 20:00:00 15 4 Este 18 Este 0 -- -- 47
2020-03-17 19:00:00 16.7 5 Este 30 Este 0 -- -- 40
2020-03-17 18:00:00 16.6 15 Este 41 Sudeste 0 -- -- 39
2020-03-17 17:00:00 17 19 Este 46 Este 0 -- -- 41
2020-03-17 16:00:00 14.9 28 Este 44 Este 0 -- -- 48
2020-03-17 15:00:00 15.2 24 Este 45 Este 0 -- -- 50
2020-03-17 14:00:00 12.7 20 Este 42 Este 0 -- -- 65
2020-03-17 13:00:00 10.5 23 Este 41 Este 0 -- -- 76
2020-03-17 12:00:00 10.3 14 Este 33 Este 0.2 -- -- 76
2020-03-17 11:00:00 8.1 18 Este 41 Este 0 -- -- 83
2020-03-17 10:00:00 9 21 Este 39 Este 0 -- -- 75
2020-03-17 09:00:00 6.5 3 Nordeste 15 Este 0 -- -- 88
2020-03-17 08:00:00 6 6 Nordeste 13 Nordeste 0.2 -- -- 90
2020-03-17 07:00:00 6.2 5 Este 20 Norte 0.2 -- -- 90
2020-03-17 06:00:00 6.2 5 Nordeste 14 Nordeste 0 -- -- 88
2020-03-17 05:00:00 5 0 Calma 12 Norte 0 -- -- 93
2020-03-17 04:00:00 6 3 Nordeste 20 Nordeste 0 -- -- 86
2020-03-17 03:00:00 6.9 8 Nordeste 20 Nordeste 0 -- -- 85
2020-03-17 02:00:00 7.4 4 Nordeste 13 Nordeste 0 -- -- 88
2020-03-17 01:00:00 7.4 4 Norte 21 Norte 0 -- -- 88
2020-03-17 00:00:00 7.7 10 Norte 28 Noroeste 0 -- -- 89
2020-03-16 23:00:00 7.5 8 Noroeste 18 Norte 2.2 -- -- 91
2020-03-16 22:00:00 7.9 15 Norte 34 Nordeste 2.4 -- -- 86
2020-03-16 21:00:00 9.4 6 Noroeste 15 Noroeste 0 -- -- 71
2020-03-16 20:00:00 9.7 12 Norte 37 Norte 0 -- -- 70
2020-03-16 19:00:00 11.8 11 Norte 37 Noroeste 0 -- -- 53
2020-03-16 18:00:00 12.6 18 Norte 38 Noroeste 0 -- -- 53
2020-03-16 17:00:00 11.8 14 Noroeste 47 Noroeste 0 -- -- 60
2020-03-16 16:00:00 13 20 Norte 49 Noroeste 0 -- -- 49
2020-03-16 15:00:00 14.5 19 Noroeste 38 Noroeste 0 -- -- 44
2020-03-16 14:00:00 12.5 18 Noroeste 45 Noroeste 0 -- -- 48
2020-03-16 13:00:00 12.1 23 Noroeste 50 Oeste 0 -- -- 50
2020-03-16 12:00:00 11 20 Noroeste 37 Norte 0 -- -- 55
2020-03-16 11:00:00 9.7 19 Noroeste 36 Oeste 0 -- -- 60
2020-03-16 10:00:00 8.1 12 Noroeste 31 Noroeste 0 -- -- 71
2020-03-16 09:00:00 6.1 19 Noroeste 42 Norte 0 -- -- 78
2020-03-16 08:00:00 4.8 10 Noroeste 26 Noroeste 0 -- -- 84
2020-03-16 07:00:00 5.6 15 Noroeste 41 Noroeste 0 -- -- 81
2020-03-16 06:00:00 5.1 7 Noroeste 21 Oeste 0 -- -- 84
2020-03-16 05:00:00 5.6 12 Noroeste 32 Noroeste 0 -- -- 82
2020-03-16 04:00:00 6.1 18 Norte 30 Norte 0 -- -- 79
2020-03-16 03:00:00 6.3 12 Norte 23 Noroeste 0 -- -- 76
2020-03-16 02:00:00 7 12 Noroeste 24 Norte 0 -- -- 75
2020-03-16 01:00:00 8.2 13 Noroeste 30 Noroeste 0 -- -- 71
2020-03-16 00:00:00 9.8 23 Noroeste 41 Noroeste 0 -- -- 61
2020-03-15 23:00:00 11.4 10 Noroeste 38 Noroeste 0 -- -- 75
2020-03-15 22:00:00 13.1 22 Noroeste 44 Noroeste 0 -- -- 71
2020-03-15 21:00:00 15.5 13 Noroeste 30 Oeste 0 -- -- 57
2020-03-15 20:00:00 16.4 10 Oeste 19 Noroeste 0 -- -- 70
2020-03-15 19:00:00 17.4 13 Noroeste 25 Noroeste 0 -- -- 68
2020-03-15 18:00:00 20 14 Oeste 25 Noroeste 0 -- -- 60
2020-03-15 17:00:00 21.2 10 Oeste 24 Oeste 0 -- -- 54
2020-03-15 16:00:00 21.6 12 Sudoeste 32 Sudoeste 0 -- -- 57
2020-03-15 15:00:00 20.7 11 Oeste 25 Oeste 0 -- -- 62
2020-03-15 14:00:00 19.4 9 Oeste 21 Oeste 0 -- -- 66
2020-03-15 13:00:00 19.2 11 Oeste 21 Oeste 0 -- -- 67
2020-03-15 12:00:00 18.5 10 Oeste 19 Noroeste 0 -- -- 72
2020-03-15 11:00:00 16.3 3 Nordeste 9 Noroeste 0 -- -- 79
2020-03-15 10:00:00 11.9 3 Noroeste 7 Oeste 0 -- -- 100
2020-03-15 09:00:00 9.7 0 Calma 5 Sudeste 0 -- -- 100
2020-03-15 08:00:00 7.2 0 Calma 4 Este 0 -- -- 100
2020-03-15 07:00:00 6.9 4 Este 6 Este 0 -- -- 99
2020-03-15 06:00:00 7.2 2 Este 6 Este 0 -- -- 98
2020-03-15 05:00:00 7.1 3 Sudeste 4 Sudeste 0 -- -- 98
2020-03-15 04:00:00 7.8 2 Nordeste 4 Sudeste 0 -- -- 97
2020-03-15 03:00:00 8.5 2 Este 5 Sudeste 0 -- -- 98
2020-03-15 02:00:00 8.7 3 Este 5 Sudeste 0 -- -- 97
2020-03-15 01:00:00 9.5 5 Sudeste 8 Sudeste 0 -- -- 96
2020-03-15 00:00:00 10.2 2 Norte 6 Sudeste 0 -- -- 93
2020-03-14 23:00:00 11.1 3 Nordeste 5 Sudeste 0 -- -- 92
2020-03-14 22:00:00 13.4 4 Nordeste 7 Este 0 -- -- 86
2020-03-14 21:00:00 13.9 3 Este 5 Sudeste 0 -- -- 82
2020-03-14 20:00:00 17.9 0 Calma 12 Oeste 0 -- -- 68
2020-03-14 19:00:00 20.7 8 Oeste 18 Oeste 0 -- -- 59
2020-03-14 18:00:00 22 12 Oeste 21 Oeste 0 -- -- 57
2020-03-14 17:00:00 22.5 13 Oeste 24 Oeste 0 -- -- 55
2020-03-14 16:00:00 22.4 16 Oeste 24 Oeste 0 -- -- 58
2020-03-14 15:00:00 22.5 15 Oeste 24 Sudoeste 0 -- -- 60
2020-03-14 14:00:00 22.7 8 Sudoeste 18 Oeste 0 -- -- 61
2020-03-14 13:00:00 22.1 6 Sudoeste 13 Oeste 0 -- -- 59
2020-03-14 12:00:00 20.2 3 Noroeste 9 Noroeste 0 -- -- 63
2020-03-14 11:00:00 18.2 0 Calma 5 Norte 0 -- -- 69
2020-03-14 10:00:00 13.5 0 Calma 4 Sur 0 -- -- 91
2020-03-14 09:00:00 9.3 0 Calma 5 Sudeste 0 -- -- 100
2020-03-14 08:00:00 5.3 2 Sudeste 5 Sudeste 0 -- -- 100
2020-03-14 07:00:00 4.9 0 Calma 8 Nordeste 0 -- -- 99
2020-03-14 06:00:00 4.4 0 Calma 4 Sudeste 0 -- -- 98
2020-03-14 05:00:00 4.9 3 Este 5 Nordeste 0 -- -- 97
2020-03-14 04:00:00 5.6 0 Calma 6 Sur 0 -- -- 98
2020-03-14 03:00:00 5.9 3 Sur 5 Sur 0 -- -- 97
2020-03-14 02:00:00 6.5 0 Calma 4 Norte 0 -- -- 96
2020-03-14 01:00:00 7.3 0 Calma 4 Sudeste 0 -- -- 95
2020-03-14 00:00:00 8.4 0 Calma 4 Este 0 -- -- 93
2020-03-13 23:00:00 9.5 3 Este 5 Sudeste 0 -- -- 93
2020-03-13 22:00:00 10.6 0 Calma 4 Sudeste 0 -- -- 88
2020-03-13 21:00:00 12.1 4 Nordeste 6 Norte 0 -- -- 85
2020-03-13 20:00:00 15.1 0 Calma 5 Noroeste 0 -- -- 74
2020-03-13 19:00:00 17.8 4 Noroeste 16 Oeste 0 -- -- 62
2020-03-13 18:00:00 19 8 Noroeste 20 Noroeste 0 -- -- 56
2020-03-13 17:00:00 20.4 11 Noroeste 25 Oeste 0 -- -- 53
2020-03-13 16:00:00 21.3 15 Oeste 25 Oeste 0 -- -- 49
2020-03-13 15:00:00 20.9 12 Oeste 22 Oeste 0 -- -- 54
2020-03-13 14:00:00 19.9 10 Oeste 18 Oeste 0 -- -- 49
2020-03-13 13:00:00 18.3 5 Oeste 12 Oeste 0 -- -- 62
2020-03-13 12:00:00 15.1 3 Norte 9 Oeste 0 -- -- 78
2020-03-13 11:00:00 11.3 0 Calma 6 Sur 0 -- -- 98
2020-03-13 10:00:00 10.3 3 Oeste 6 Noroeste 0 -- -- 100
2020-03-13 09:00:00 9.5 3 Oeste 5 Oeste 0 -- -- 100
2020-03-13 08:00:00 8.2 0 Calma 3 Noroeste 0 -- -- 98
2020-03-13 07:00:00 9 0 Calma 4 Oeste 0 -- -- 100
2020-03-13 06:00:00 7.8 0 Calma 3 Sudeste 0 -- -- 99
2020-03-13 05:00:00 6.8 0 Calma 3 Sudeste 0 -- -- 99
2020-03-13 04:00:00 6.6 0 Calma 2 Nordeste 0 -- -- 97
2020-03-13 03:00:00 7.4 2 Este 4 Sudeste 0 -- -- 97
2020-03-13 02:00:00 8.2 0 Calma 4 Este 0 -- -- 95
2020-03-13 01:00:00 9.3 0 Calma 4 Este 0 -- -- 95
2020-03-13 00:00:00 10.6 4 Este 6 Este 0 -- -- 94
2020-03-12 23:00:00 11.7 0 Calma 4 Norte 0 -- -- 90
2020-03-12 22:00:00 13.5 4 Nordeste 7 Nordeste 0 -- -- 86
2020-03-12 21:00:00 15.7 0 Calma 9 Nordeste 0 -- -- 77
2020-03-12 20:00:00 17.4 5 Nordeste 9 Oeste 0 -- -- 71
2020-03-12 19:00:00 21 5 Sudoeste 13 Sur 0 -- -- 57
2020-03-12 18:00:00 22.4 8 Sur 16 Oeste 0 -- -- 53
2020-03-12 17:00:00 23.3 11 Sudoeste 18 Sudoeste 0 -- -- 49
2020-03-12 16:00:00 23.9 8 Sudeste 21 Sudeste 0 -- -- 45
2020-03-12 15:00:00 22.5 14 Sur 27 Sudoeste 0 -- -- 52
2020-03-12 14:00:00 21.4 12 Sur 22 Sudoeste 0 -- -- 59
2020-03-12 13:00:00 21.1 15 Sur 25 Sudoeste 0 -- -- 48
2020-03-12 12:00:00 20.6 3 Sur 14 Este 0 -- -- 50
2020-03-12 11:00:00 18.9 7 Este 13 Este 0 -- -- 53
2020-03-12 10:00:00 17.2 10 Este 14 Este 0 -- -- 58
2020-03-12 09:00:00 12.7 3 Sudeste 6 Este 0 -- -- 80
2020-03-12 08:00:00 11.3 0 Calma 7 Este 0 -- -- 78
2020-03-12 07:00:00 13 0 Calma 14 Este 0 -- -- 68
2020-03-12 06:00:00 12.1 3 Sudeste 18 Este 0 -- -- 74
2020-03-12 05:00:00 9.9 3 Este 12 Este 0 -- -- 91
2020-03-12 04:00:00 10.2 0 Calma 8 Sur 0 -- -- 90
2020-03-12 03:00:00 10.5 2 Este 5 Sudeste 0 -- -- 89
2020-03-12 02:00:00 9.6 3 Sudeste 6 Este 0 -- -- 90
2020-03-12 01:00:00 10.6 3 Nordeste 5 Este 0 -- -- 89
2020-03-12 00:00:00 11.3 0 Calma 4 Sudeste 0 -- -- 86
2020-03-11 23:00:00 12.9 3 Sudeste 5 Nordeste 0 -- -- 81
2020-03-11 22:00:00 15 3 Este 7 Nordeste 0 -- -- 74
2020-03-11 21:00:00 16.1 0 Calma 9 Norte 0 -- -- 70
2020-03-11 20:00:00 20 4 Norte 8 Norte 0 -- -- 56
2020-03-11 19:00:00 24.2 5 Nordeste 12 Sur 0 -- -- 45
2020-03-11 18:00:00 27.8 4 Sudeste 14 Sudeste 0 -- -- 33
2020-03-11 17:00:00 29.3 10 Sudeste 22 Sudeste 0 -- -- 25
2020-03-11 16:00:00 29.6 7 Sudeste 15 Sur 0 -- -- 32
2020-03-11 15:00:00 28.9 7 Sur 22 Sudeste 0 -- -- 33
2020-03-11 14:00:00 28.2 8 Sur 20 Sur 0 -- -- 39
2020-03-11 13:00:00 28.1 0 Calma 9 Sur 0 -- -- 35
2020-03-11 12:00:00 26.5 4 Sudeste 9 Sudeste 0 -- -- 41
2020-03-11 11:00:00 21.8 0 Calma 3 Sudoeste 0 -- -- 52
2020-03-11 10:00:00 16.5 0 Calma 6 Sudeste 0 -- -- 72
2020-03-11 09:00:00 11.1 4 Este 5 Este 0 -- -- 87
2020-03-11 08:00:00 7.9 3 Este 9 Nordeste 0 -- -- 94
2020-03-11 07:00:00 7.3 4 Sudeste 7 Este 0 -- -- 93
2020-03-11 06:00:00 7.7 3 Este 6 Este 0 -- -- 91
2020-03-11 05:00:00 7.8 4 Nordeste 6 Este 0 -- -- 91
2020-03-11 04:00:00 8.8 3 Este 7 Este 0 -- -- 89
2020-03-11 03:00:00 9.1 2 Este 7 Este 0 -- -- 89
2020-03-11 02:00:00 9.8 3 Este 8 Sudeste 0 -- -- 86
2020-03-11 01:00:00 10.9 3 Sudeste 8 Sudeste 0 -- -- 85
2020-03-11 00:00:00 11.4 4 Sudeste 6 Nordeste 0 -- -- 85
2020-03-10 23:00:00 12.2 3 Este 8 Este 0 -- -- 83
2020-03-10 22:00:00 13.4 0 Calma 6 Sur 0 -- -- 80
2020-03-10 21:00:00 16.1 0 Calma 10 Nordeste 0 -- -- 68
2020-03-10 20:00:00 20.4 3 Norte 9 Oeste 0 -- -- 54
2020-03-10 19:00:00 25.3 8 Oeste 13 Noroeste 0 -- -- 39
2020-03-10 18:00:00 27.5 6 Oeste 17 Sudoeste 0 -- -- 36
2020-03-10 17:00:00 29.3 4 Sudoeste 9 Este 0 -- -- 30
2020-03-10 16:00:00 29 5 Sur 13 Sudoeste 0 -- -- 26
2020-03-10 15:00:00 27.9 6 Oeste 12 Sudoeste 0 -- -- 29
2020-03-10 14:00:00 27 3 Oeste 15 Noroeste 0 -- -- 30
2020-03-10 13:00:00 25.5 5 Sudoeste 10 Sur 0 -- -- 32
2020-03-10 12:00:00 23.3 3 Nordeste 8 Este 0 -- -- 36
2020-03-10 11:00:00 19.5 0 Calma 5 Sudoeste 0 -- -- 47
2020-03-10 10:00:00 15.1 0 Calma 5 Nordeste 0 -- -- 59
2020-03-10 09:00:00 10.3 2 Nordeste 6 Sudeste 0 -- -- 74
2020-03-10 08:00:00 7.7 3 Este 7 Nordeste 0 -- -- 75
2020-03-10 07:00:00 8.2 3 Nordeste 11 Este 0 -- -- 73
2020-03-10 06:00:00 9 6 Nordeste 10 Este 0 -- -- 69
2020-03-10 05:00:00 6.2 3 Nordeste 8 Nordeste 0 -- -- 88
2020-03-10 04:00:00 6.2 4 Este 8 Sudeste 0 -- -- 91
2020-03-10 03:00:00 6.9 4 Este 8 Sudeste 0 -- -- 87
2020-03-10 02:00:00 8.5 4 Este 10 Este 0 -- -- 80
2020-03-10 01:00:00 10.5 2 Norte 8 Este 0 -- -- 73
2020-03-10 00:00:00 9.9 4 Este 8 Sur 0 -- -- 74
2020-03-09 23:00:00 8.6 2 Sudeste 9 Norte 0 -- -- 78
2020-03-09 22:00:00 10.1 0 Calma 8 Noroeste 0 -- -- 72
2020-03-09 21:00:00 11.9 4 Oeste 10 Oeste 0 -- -- 61
2020-03-09 20:00:00 16.3 4 Norte 17 Noroeste 0 -- -- 45
2020-03-09 19:00:00 19.2 11 Norte 27 Noroeste 0 -- -- 35
2020-03-09 18:00:00 20.9 13 Noroeste 28 Norte 0 -- -- 30
2020-03-09 17:00:00 21.2 14 Noroeste 26 Noroeste 0 -- -- 32
2020-03-09 16:00:00 20.4 15 Noroeste 28 Noroeste 0 -- -- 38
2020-03-09 15:00:00 20 12 Noroeste 27 Noroeste 0 -- -- 43
2020-03-09 14:00:00 19.6 12 Norte 32 Nordeste 0 -- -- 39
2020-03-09 13:00:00 18.8 10 Norte 24 Noroeste 0 -- -- 38
2020-03-09 12:00:00 17.9 8 Norte 17 Nordeste 0 -- -- 42
2020-03-09 11:00:00 15.3 6 Noroeste 15 Nordeste 0 -- -- 61
2020-03-09 10:00:00 12.6 6 Este 14 Este 0 -- -- 73
2020-03-09 09:00:00 10.2 6 Este 10 Este 0 -- -- 88
2020-03-09 08:00:00 9.1 3 Nordeste 18 Norte 0 -- -- 90
2020-03-09 07:00:00 9.3 4 Norte 17 Nordeste 0 -- -- 91
2020-03-09 06:00:00 10.3 3 Nordeste 19 Nordeste 0 -- -- 91
2020-03-09 05:00:00 10.5 6 Norte 17 Norte 0 -- -- 92
2020-03-09 04:00:00 10.6 4 Noroeste 13 Oeste 0 -- -- 91
2020-03-09 03:00:00 11.1 4 Nordeste 23 Oeste 0 -- -- 90
2020-03-09 02:00:00 11.1 6 Norte 15 Nordeste 0 -- -- 89
2020-03-09 01:00:00 9.7 3 Sudeste 11 Noroeste 0 -- -- 85
2020-03-09 00:00:00 11 3 Noroeste 12 Oeste 0 -- -- 81
2020-03-08 23:00:00 11.3 0 Calma 10 Nordeste 0 -- -- 76
2020-03-08 22:00:00 11.9 3 Nordeste 10 Nordeste 0 -- -- 71
2020-03-08 21:00:00 13.8 0 Calma 15 Norte 0 -- -- 66
2020-03-08 20:00:00 14.9 5 Noroeste 14 Noroeste 0 -- -- 60
2020-03-08 19:00:00 15.8 6 Noroeste 18 Noroeste 0 -- -- 55
2020-03-08 18:00:00 17.2 6 Noroeste 27 Noroeste 0 -- -- 52
2020-03-08 17:00:00 18.1 13 Noroeste 25 Noroeste 0 -- -- 48
2020-03-08 16:00:00 18.2 12 Noroeste 20 Norte 0 -- -- 46
2020-03-08 15:00:00 19.7 11 Oeste 22 Noroeste 0 -- -- 37
2020-03-08 14:00:00 19.3 6 Norte 15 Oeste 0 -- -- 39
2020-03-08 13:00:00 18.1 9 Noroeste 14 Oeste 0 -- -- 40
2020-03-08 12:00:00 16.9 4 Oeste 10 Sudoeste 0 -- -- 54
2020-03-08 11:00:00 13.3 2 Noroeste 4 Noroeste 0 -- -- 66
2020-03-08 10:00:00 8.2 0 Calma 4 Noroeste 0 -- -- 81
2020-03-08 09:00:00 2 0 Calma 5 Sudeste 0 -- -- 99
2020-03-08 08:00:00 -0.7 4 Sudeste 6 Sudeste 0 -- -- 97
2020-03-08 07:00:00 -0.7 2 Nordeste 5 Este 0 -- -- 96
2020-03-08 06:00:00 0.2 3 Sudeste 7 Sudeste 0 -- -- 95
2020-03-08 05:00:00 1.4 5 Este 8 Sudeste 0 -- -- 96
2020-03-08 04:00:00 1.9 4 Este 8 Sudeste 0 -- -- 93
2020-03-08 03:00:00 1.7 4 Sudeste 8 Sudeste 0 -- -- 94
2020-03-08 02:00:00 3.1 4 Este 7 Este 0 -- -- 93
2020-03-08 01:00:00 3.8 4 Este 8 Sudeste 0 -- -- 90
2020-03-08 00:00:00 4.5 3 Este 5 Este 0 -- -- 90
2020-03-07 23:00:00 6.1 4 Este 6 Este 0 -- -- 85
2020-03-07 22:00:00 8.1 3 Sudeste 6 Nordeste 0 -- -- 75
2020-03-07 21:00:00 11.4 5 Nordeste 9 Nordeste 0 -- -- 67
2020-03-07 20:00:00 14.3 6 Norte 19 Noroeste 0 -- -- 56
2020-03-07 19:00:00 18.1 7 Norte 16 Noroeste 0 -- -- 42
2020-03-07 18:00:00 19.3 11 Norte 20 Norte 0 -- -- 36
2020-03-07 17:00:00 20.4 6 Noroeste 17 Norte 0 -- -- 36
2020-03-07 16:00:00 20.2 9 Norte 16 Norte 0 -- -- 37
2020-03-07 15:00:00 20.4 7 Sur 13 Sur 0 -- -- 36
2020-03-07 14:00:00 18.6 6 Nordeste 14 Este 0 -- -- 34
2020-03-07 13:00:00 17.7 8 Este 19 Norte 0 -- -- 40
2020-03-07 12:00:00 15.5 6 Este 12 Nordeste 0 -- -- 44
2020-03-07 11:00:00 13.2 6 Este 19 Este 0 -- -- 50
2020-03-07 10:00:00 11.1 3 Nordeste 14 Este 0 -- -- 59
2020-03-07 09:00:00 5.7 3 Nordeste 14 Sudeste 0 -- -- 84
2020-03-07 08:00:00 4.7 3 Nordeste 10 Sudeste 0 -- -- 80
2020-03-07 07:00:00 6.1 5 Este 13 Nordeste 0 -- -- 76
2020-03-07 06:00:00 7 4 Nordeste 24 Norte 0 -- -- 76
2020-03-07 05:00:00 5.9 8 Este 21 Nordeste 0 -- -- 86
2020-03-07 04:00:00 5.5 2 Sudeste 10 Oeste 0 -- -- 86
2020-03-07 03:00:00 4.9 5 Oeste 8 Oeste 0 -- -- 88
2020-03-07 02:00:00 6.5 0 Calma 9 Oeste 0 -- -- 81
2020-03-07 01:00:00 8.2 3 Oeste 19 Norte 0 -- -- 74
2020-03-07 00:00:00 9.1 11 Noroeste 23 Noroeste 0 -- -- 68
2020-03-06 23:00:00 9.9 2 Norte 23 Noroeste 0 -- -- 64
2020-03-06 22:00:00 10.9 14 Noroeste 30 Noroeste 0 -- -- 62
2020-03-06 21:00:00 11.8 10 Noroeste 31 Noroeste 0 -- -- 61
2020-03-06 20:00:00 12.6 9 Noroeste 30 Noroeste 0 -- -- 60
2020-03-06 19:00:00 14.2 16 Noroeste 34 Noroeste 0 -- -- 54
2020-03-06 18:00:00 15.4 14 Noroeste 33 Noroeste 0 -- -- 51
2020-03-06 17:00:00 15.8 15 Noroeste 36 Noroeste 0 -- -- 51
2020-03-06 16:00:00 15.7 19 Noroeste 42 Noroeste 0 -- -- 51
2020-03-06 15:00:00 15.1 22 Noroeste 42 Noroeste 0 -- -- 53
2020-03-06 14:00:00 14.7 24 Noroeste 46 Norte 0 -- -- 53
2020-03-06 13:00:00 13.8 17 Noroeste 45 Oeste 0 -- -- 56
2020-03-06 12:00:00 12.3 20 Noroeste 44 Noroeste 0 -- -- 67
2020-03-06 11:00:00 11.8 17 Noroeste 36 Noroeste 0 -- -- 70
2020-03-06 10:00:00 10.9 12 Noroeste 38 Oeste 0 -- -- 81
2020-03-06 09:00:00 9.8 15 Oeste 30 Oeste 0 -- -- 87
2020-03-06 08:00:00 9.4 16 Oeste 42 Oeste 0 -- -- 91
2020-03-06 07:00:00 8.8 8 Oeste 22 Oeste 0 -- -- 95
2020-03-06 06:00:00 8.8 10 Oeste 15 Sudoeste 0 -- -- 94
2020-03-06 05:00:00 8.6 9 Oeste 18 Sudoeste 0 -- -- 93
2020-03-06 04:00:00 8.4 5 Oeste 22 Oeste 0 -- -- 92
2020-03-06 03:00:00 8.7 10 Oeste 22 Oeste 0 -- -- 90
2020-03-06 02:00:00 9.1 9 Noroeste 27 Oeste 0 -- -- 87
2020-03-06 01:00:00 9.5 17 Noroeste 35 Noroeste 0 -- -- 85
2020-03-06 00:00:00 9.7 10 Noroeste 36 Oeste 0 -- -- 83
2020-03-05 23:00:00 10.6 14 Noroeste 39 Noroeste 0 -- -- 77
2020-03-05 22:00:00 11.3 17 Noroeste 34 Noroeste 0 -- -- 70
2020-03-05 21:00:00 12.3 16 Noroeste 38 Oeste 0 -- -- 66
2020-03-05 20:00:00 13.4 14 Noroeste 37 Sudoeste 0 -- -- 65
2020-03-05 19:00:00 14.7 17 Noroeste 43 Oeste 0 -- -- 59
2020-03-05 18:00:00 16 23 Oeste 38 Noroeste 0 -- -- 54
2020-03-05 17:00:00 16.2 19 Noroeste 36 Oeste 0 -- -- 58
2020-03-05 16:00:00 16.9 24 Noroeste 40 Noroeste 0 -- -- 52
2020-03-05 15:00:00 15.8 18 Noroeste 40 Oeste 0 -- -- 60
2020-03-05 14:00:00 15.1 12 Noroeste 32 Noroeste 0 -- -- 66
2020-03-05 13:00:00 13.9 10 Noroeste 33 Oeste 0 -- -- 77
2020-03-05 12:00:00 12.5 15 Noroeste 38 Noroeste 0 -- -- 86
2020-03-05 11:00:00 12.2 17 Oeste 46 Oeste 0.2 -- -- 96
2020-03-05 10:00:00 12.5 7 Oeste 11 Noroeste 0 -- -- 97
2020-03-05 09:00:00 11.7 3 Sudoeste 10 Oeste 0 -- -- 100
2020-03-05 08:00:00 11.6 4 Sudoeste 12 Oeste 0 -- -- 100
2020-03-05 07:00:00 11.7 4 Oeste 8 Oeste 0.2 -- -- 100
2020-03-05 06:00:00 11.4 2 Oeste 5 Oeste 0 -- -- 100
2020-03-05 05:00:00 11.2 0 Calma 2 Nordeste 0 -- -- 100
2020-03-05 04:00:00 10.8 0 Calma 7 Oeste 0 -- -- 100
2020-03-05 03:00:00 10.2 0 Calma 2 Este 0 -- -- 99
2020-03-05 02:00:00 9.5 2 Sudoeste 4 Nordeste 0 -- -- 99
2020-03-05 01:00:00 8.5 0 Calma 3 Sudeste 0 -- -- 99
2020-03-05 00:00:00 7 2 Nordeste 4 Nordeste 0 -- -- 97
2020-03-04 23:00:00 7.5 0 Calma 6 Sudeste 0 -- -- 95
2020-03-04 22:00:00 8.8 4 Sudeste 6 Sudeste 0 -- -- 91
2020-03-04 21:00:00 11.1 3 Este 8 Nordeste 0 -- -- 88
2020-03-04 20:00:00 13.7 2 Nordeste 6 Oeste 0 -- -- 77
2020-03-04 19:00:00 18 4 Oeste 15 Oeste 0 -- -- 59
2020-03-04 18:00:00 18.4 8 Oeste 22 Oeste 0 -- -- 59
2020-03-04 17:00:00 18.5 11 Noroeste 26 Oeste 0 -- -- 57
2020-03-04 16:00:00 18.9 12 Noroeste 28 Oeste 0 -- -- 56
2020-03-04 15:00:00 18.4 14 Noroeste 24 Noroeste 0 -- -- 58
2020-03-04 14:00:00 16.8 9 Oeste 23 Oeste 0 -- -- 70
2020-03-04 13:00:00 15.2 13 Oeste 25 Oeste 0 -- -- 78
2020-03-04 12:00:00 15.4 9 Noroeste 20 Oeste 0 -- -- 79
2020-03-04 11:00:00 15.2 12 Oeste 20 Noroeste 0 -- -- 79
2020-03-04 10:00:00 15.1 0 Calma 6 Este 0 -- -- 83
2020-03-04 09:00:00 11.2 3 Sudoeste 4 Sudoeste 0 -- -- 100
2020-03-04 08:00:00 10.3 2 Noroeste 5 Sudoeste 0 -- -- 96
2020-03-04 07:00:00 11.6 0 Calma 12 Oeste 0 -- -- 96
2020-03-04 06:00:00 12.1 6 Noroeste 13 Norte 0 -- -- 97
2020-03-04 05:00:00 11.8 4 Oeste 7 Oeste 0 -- -- 97
2020-03-04 04:00:00 12.5 3 Oeste 11 Sudoeste 0 -- -- 97
2020-03-04 03:00:00 12.6 6 Sudoeste 12 Oeste 0 -- -- 97
2020-03-04 02:00:00 13.1 10 Oeste 17 Oeste 0 -- -- 95
2020-03-04 01:00:00 13.3 9 Oeste 17 Oeste 0 -- -- 94
2020-03-04 00:00:00 13.5 10 Oeste 17 Oeste 0 -- -- 93
2020-03-03 23:00:00 13.9 8 Oeste 14 Oeste 0 -- -- 92
2020-03-03 22:00:00 14 5 Oeste 13 Sudoeste 0 -- -- 89
2020-03-03 21:00:00 14.3 5 Oeste 11 Sudoeste 0 -- -- 87
2020-03-03 20:00:00 14.7 6 Oeste 19 Oeste 0 -- -- 85
2020-03-03 19:00:00 16.1 13 Oeste 31 Oeste 0 -- -- 76
2020-03-03 18:00:00 17.1 15 Oeste 30 Oeste 0 -- -- 76
2020-03-03 17:00:00 15.9 9 Oeste 22 Oeste 0 -- -- 91
2020-03-03 16:00:00 15.4 9 Oeste 28 Oeste 0 -- -- 89
2020-03-03 15:00:00 16.2 15 Oeste 27 Oeste 0 -- -- 81
2020-03-03 14:00:00 15.8 17 Oeste 28 Oeste 0 -- -- 81
2020-03-03 13:00:00 14.3 14 Oeste 27 Oeste 0 -- -- 86
2020-03-03 12:00:00 13.4 14 Oeste 23 Sudoeste 0 -- -- 85
2020-03-03 11:00:00 10.5 4 Noroeste 10 Sudoeste 0 -- -- 97
2020-03-03 10:00:00 7.3 2 Norte 3 Norte 0 -- -- 100
2020-03-03 09:00:00 3.7 3 Sur 4 Sur 0 -- -- 100
2020-03-03 08:00:00 2.4 0 Calma 5 Este 0 -- -- 99
2020-03-03 07:00:00 2.4 0 Calma 3 Este 0 -- -- 99
2020-03-03 06:00:00 3.1 2 Sudeste 5 Nordeste 0 -- -- 99
2020-03-03 05:00:00 3.3 3 Sur 5 Sur 0 -- -- 99
2020-03-03 04:00:00 3.4 0 Calma 6 Este 0 -- -- 96
2020-03-03 03:00:00 3.9 2 Este 5 Sudeste 0 -- -- 96
2020-03-03 02:00:00 5 2 Nordeste 8 Sudeste 0 -- -- 95
2020-03-03 01:00:00 6.2 4 Sudeste 6 Sudeste 0 -- -- 91
2020-03-03 00:00:00 8.8 0 Calma 18 Oeste 0 -- -- 80
2020-03-02 23:00:00 10.5 7 Oeste 27 Noroeste 0 -- -- 75
2020-03-02 22:00:00 11.5 12 Noroeste 26 Noroeste 0 -- -- 70
2020-03-02 21:00:00 12.4 13 Noroeste 31 Noroeste 0 -- -- 65
2020-03-02 20:00:00 13.2 17 Oeste 30 Oeste 0 -- -- 63
2020-03-02 19:00:00 14.1 15 Oeste 28 Oeste 0 -- -- 64
2020-03-02 18:00:00 14.9 13 Noroeste 35 Oeste 0 -- -- 58
2020-03-02 17:00:00 16 18 Noroeste 39 Oeste 0 -- -- 55
2020-03-02 16:00:00 15.7 21 Noroeste 48 Oeste 0 -- -- 55
2020-03-02 15:00:00 15.9 23 Oeste 40 Oeste 0 -- -- 57
2020-03-02 14:00:00 15.3 23 Oeste 45 Oeste 0 -- -- 58
2020-03-02 13:00:00 15.6 20 Noroeste 44 Oeste 0 -- -- 63
2020-03-02 12:00:00 15.3 21 Noroeste 44 Noroeste 0 -- -- 62
2020-03-02 11:00:00 14.9 22 Noroeste 40 Oeste 0 -- -- 69
2020-03-02 10:00:00 14.6 18 Oeste 40 Oeste 0 -- -- 87
2020-03-02 09:00:00 14 22 Oeste 39 Oeste 0.2 -- -- 94
2020-03-02 08:00:00 13.8 16 Oeste 35 Oeste 0.6 -- -- 97
2020-03-02 07:00:00 13.6 18 Oeste 34 Oeste 0.6 -- -- 97
2020-03-02 06:00:00 13.5 14 Oeste 33 Sudoeste 0.2 -- -- 96
2020-03-02 05:00:00 13.1 9 Oeste 23 Oeste 2.8 -- -- 97
2020-03-02 04:00:00 13.7 13 Oeste 43 Sudoeste 0 -- -- 91
2020-03-02 03:00:00 14.1 20 Sudoeste 38 Sudoeste 0 -- -- 86
2020-03-02 02:00:00 14.2 16 Sudoeste 28 Sudoeste 0 -- -- 84
2020-03-02 01:00:00 14.2 9 Sudoeste 31 Sudoeste 0 -- -- 84
2020-03-02 00:00:00 14.4 14 Sudoeste 31 Sudoeste 0 -- -- 85
2020-03-01 23:00:00 14.6 13 Sudoeste 35 Sudoeste 0 -- -- 84
2020-03-01 22:00:00 14.9 13 Sudoeste 29 Sudoeste 0 -- -- 82
2020-03-01 21:00:00 15.2 11 Sudoeste 26 Sur 0 -- -- 86
2020-03-01 20:00:00 15.2 13 Sur 24 Sur 0 -- -- 88
2020-03-01 19:00:00 16 10 Sudoeste 15 Sudoeste 0 -- -- 80
2020-03-01 18:00:00 16.2 13 Sudoeste 21 Sudoeste 0 -- -- 78
2020-03-01 17:00:00 16.3 13 Sudoeste 22 Oeste 0 -- -- 77
2020-03-01 16:00:00 16 10 Sudoeste 24 Sur 0 -- -- 79
2020-03-01 15:00:00 15.9 11 Sudoeste 23 Sudoeste 0 -- -- 81
2020-03-01 14:00:00 15.8 10 Sudoeste 21 Sudoeste 0 -- -- 79
2020-03-01 13:00:00 15.9 11 Sudoeste 19 Sudoeste 0 -- -- 79
2020-03-01 12:00:00 14.5 10 Sudoeste 22 Oeste 0 -- -- 85
2020-03-01 11:00:00 13.3 12 Oeste 18 Sudoeste 0 -- -- 93
2020-03-01 10:00:00 12.1 9 Oeste 15 Oeste 0 -- -- 100
2020-03-01 09:00:00 11.2 0 Calma 5 Noroeste 0 -- -- 100
2020-03-01 08:00:00 10.6 3 Oeste 6 Oeste 0 -- -- 100
2020-03-01 07:00:00 10.5 0 Calma 5 Sudeste 0 -- -- 100
2020-03-01 06:00:00 10.2 0 Calma 3 Norte 0 -- -- 100
2020-03-01 05:00:00 10.1 2 Este 4 Norte 0 -- -- 100
2020-03-01 04:00:00 9.3 2 Este 4 Este 0 -- -- 100
2020-03-01 03:00:00 8.5 0 Calma 3 Sudeste 0 -- -- 100
2020-03-01 02:00:00 7.5 0 Calma 3 Sudeste 0 -- -- 100
2020-03-01 01:00:00 6.6 0 Calma 3 Este 0 -- -- 98
2020-03-01 00:00:00 7.8 0 Calma 6 Este 0 -- -- 97
2020-02-29 23:00:00 8.6 0 Calma 6 Este 0 -- -- 97
2020-02-29 22:00:00 10 4 Sudoeste 10 Oeste 0 -- -- 95
2020-02-29 21:00:00 12.2 5 Oeste 19 Oeste 0 -- -- 92
2020-02-29 20:00:00 14.1 7 Oeste 13 Oeste 0 -- -- 96
2020-02-29 19:00:00 14.6 0 Calma 9 Oeste 0 -- -- 95
2020-02-29 18:00:00 14.8 6 Sudoeste 16 Oeste 0.2 -- -- 96
2020-02-29 17:00:00 14.5 9 Sudoeste 15 Sudoeste 1 -- -- 96
2020-02-29 16:00:00 14.4 8 Sudoeste 15 Sur 1.6 -- -- 95
2020-02-29 15:00:00 14.3 2 Sur 16 Sudoeste 0.4 -- -- 93
2020-02-29 14:00:00 14.8 8 Sudoeste 24 Sudoeste 0 -- -- 86
2020-02-29 13:00:00 14.8 12 Sudoeste 22 Sur 0 -- -- 79
2020-02-29 12:00:00 14.8 14 Sudoeste 23 Sudoeste 0 -- -- 76
2020-02-29 11:00:00 13.8 6 Oeste 15 Oeste 0 -- -- 81
2020-02-29 10:00:00 10.9 2 Este 5 Este 0 -- -- 98
2020-02-29 09:00:00 9.7 0 Calma 4 Sudeste 0 -- -- 99
2020-02-29 08:00:00 8.9 0 Calma 3 Este 0 -- -- 99
2020-02-29 07:00:00 8.7 2 Nordeste 5 Este 0 -- -- 98
2020-02-29 06:00:00 8.5 2 Sudoeste 4 Sur 0 -- -- 99
2020-02-29 05:00:00 8 3 Este 6 Sur 0 -- -- 99
2020-02-29 04:00:00 6.7 2 Sudeste 5 Este 0 -- -- 99
2020-02-29 03:00:00 5 3 Nordeste 5 Este 0 -- -- 99
2020-02-29 02:00:00 4.2 0 Calma 4 Nordeste 0 -- -- 95
2020-02-29 01:00:00 4.9 0 Calma 3 Sur 0 -- -- 94
2020-02-29 00:00:00 6.7 3 Nordeste 4 Nordeste 0 -- -- 92